LEWISTON (LEW)

Elevation: 1870' · TRINITY R basin · Operator: US Bureau of Reclamation

Provisional data, subject to change.
Query executed Sunday at 0:44:01   clock

Select a sensor type for a plot of data.
Note: Reservoir Flows are daily averages.

Earlier

Date RES ELE    STORAGE    RES CHG    OUTFLOW    INFLOW    EVAP    RIV REL    SPILL    DIS PWR   
 FEET   AF   AF   CFS   CFS   CFS   CFS   CFS   CFS  
03/27/2015 1901.22 14076 -89 565 525 5 313 183 0
03/28/2015 1901.08 13971 -105 322 273 4 312 182 0
03/29/2015 1901.01 13918 -8 320 297 4 310 180 0
03/30/2015 1900.94 13867 0 321 298 3 311 181 0
03/31/2015 1900.87 13815 0 321 298 3 311 181 0
04/01/2015 1900.80 13764 0 321 300 5 311 181 0
04/02/2015 1900.74 13720 0 321 302 3 311 181 0
04/03/2015 1901.11 13993 30 704 845 3 312 182 0
04/04/2015 1900.66 13661 -332 771 607 3 311 181 0
04/05/2015 1900.33 13418 -15 571 451 3 309 179 0
04/06/2015 1900.69 13683 37 591 726 1 310 180 0
04/07/2015 1901.22 14076 393 318 517 1 308 178 0
04/08/2015 1901.45 14248 172 554 642 1 309 179 0
04/09/2015 1901.49 14278 30 562 577 0 310 180 0
04/10/2015 1901.40 14210 -68 555 523 2 308 178 0
04/11/2015 1901.37 14188 -22 384 377 4 309 179 0
04/12/2015 1901.06 13956 -- 389 275 3 309 179 0
04/13/2015 1900.95 13874 -82 386 349 4 306 176 0
04/14/2015 1901.06 13956 82 735 781 5 313 183 0
04/15/2015 1901.39 14203 247 808 937 4 319 189 0
04/16/2015 1901.10 13986 -217 883 778 4 319 189 0
04/17/2015 1900.67 13668 -318 1084 929 5 319 189 0
04/18/2015 1900.40 13469 -199 1059 963 4 316 186 0
04/19/2015 1901.61 14367 898 842 1300 5 318 188 0
04/20/2015 1901.81 14517 150 1076 1157 5 324 194 0
04/21/2015 1901.25 14098 -419 1604 1398 5 322 192 0
04/22/2015 1901.51 14292 194 1562 1664 4 401 271 0
04/23/2015 1901.54 14315 23 1599 1616 5 492 362 0
04/24/2015 1900.86 13808 -507 1794 1543 5 488 358 0
04/25/2015 -- -- -- -- -- -- -- -- --
04/26/2015 -- -- -- -- -- -- -- -- --

Later | Latest

Warning! This data is preliminary and subject to revision.

Show LEW Map | Plot LEW Data | 1 Month LEW Data | Real-Time LEW Data | LEW Info